Time;durP1;ratioP1;P1;durP2;ratioP2;P2;SDS_P1;SDS_P2;PMS_P1;PMS_P2;Temp;Humidity;BMP_temperature;BMP_pressure;BME280_temperature;BME280_humidity;BME280_pressure;Samples;Min_cycle;Max_cycle;Signal;HPM_P1;HPM_P2
2023/07/16 00:02:00;;;;;;;9.27;7.25;;;;;;;25.15;53.37;99619.50;7642399;32;37229;-79
2023/07/16 00:06:16;;;;;;;12.02;6.57;;;;;;;25.20;53.54;99622.78;7643830;32;39597;-82
2023/07/16 00:10:39;;;;;;;10.70;6.72;;;;;;;25.15;53.83;99622.28;7643990;32;40061;-82
2023/07/16 00:14:57;;;;;;;11.00;6.70;;;;;;;25.17;53.94;99617.94;7644498;32;38744;-84
2023/07/16 00:19:15;;;;;;;14.90;6.57;;;;;;;25.03;54.39;99624.09;7643835;32;37326;-83
2023/07/16 00:23:32;;;;;;;13.90;6.05;;;;;;;25.15;53.81;99620.31;7644292;32;39337;-83
2023/07/16 00:27:48;;;;;;;9.55;6.03;;;;;;;24.76;54.84;99620.47;7642638;32;41025;-82
2023/07/16 00:32:05;;;;;;;9.68;5.72;;;;;;;24.91;54.03;99621.53;7642452;32;37937;-82
2023/07/16 00:36:21;;;;;;;8.88;6.10;;;;;;;25.00;53.67;99613.69;7643568;32;38680;-83
2023/07/16 00:40:37;;;;;;;11.18;6.97;;;;;;;24.89;53.55;99618.31;7644411;32;40030;-82
2023/07/16 00:44:53;;;;;;;11.27;6.72;;;;;;;24.87;53.84;99615.06;7645215;32;39532;-84
2023/07/16 00:49:10;;;;;;;10.00;7.82;;;;;;;24.95;54.00;99616.00;7643520;32;38673;-83
2023/07/16 00:53:26;;;;;;;12.18;7.40;;;;;;;24.60;55.69;99617.00;7641609;32;37868;-84
2023/07/16 00:57:43;;;;;;;12.50;7.50;;;;;;;24.62;55.91;99621.03;7642915;32;39665;-83
2023/07/16 01:01:59;;;;;;;16.17;8.77;;;;;;;24.49;56.23;99617.59;7642604;32;40825;-83
2023/07/16 01:06:34;;;;;;;12.15;9.02;;;;;;;24.57;56.40;99606.59;7643028;32;37674;-84
2023/07/16 01:10:50;;;;;;;13.73;8.18;;;;;;;24.37;57.36;99603.84;7652673;32;37940;-83
2023/07/16 01:15:07;;;;;;;10.68;7.40;;;;;;;24.26;57.60;99603.63;7653517;32;40040;-82
2023/07/16 01:19:23;;;;;;;13.45;8.52;;;;;;;24.13;57.62;99611.34;7641442;32;40714;-83
2023/07/16 01:24:16;;;;;;;10.52;7.30;;;;;;;24.16;57.57;99604.22;7643897;32;37556;-83
2023/07/16 01:28:47;;;;;;;12.77;7.65;;;;;;;24.13;57.52;99610.53;7642908;32;37107;-83
2023/07/16 01:33:04;;;;;;;12.40;8.35;;;;;;;23.99;57.79;99606.28;7640944;32;39379;-82
2023/07/16 01:37:21;;;;;;;13.43;8.65;;;;;;;24.37;57.24;99599.06;7643051;32;39934;-82
2023/07/16 01:41:40;;;;;;;13.90;7.87;;;;;;;23.97;58.49;99607.81;7642788;32;38616;-83
2023/07/16 01:45:56;;;;;;;8.18;5.82;;;;;;;23.87;58.59;99612.00;7639453;32;38071;-83
2023/07/16 01:50:12;;;;;;;10.30;7.75;;;;;;;23.94;56.66;99605.75;7642968;32;40123;-83
2023/07/16 01:54:29;;;;;;;10.70;6.35;;;;;;;23.91;57.10;99598.16;7642896;32;40804;-83
2023/07/16 01:58:45;;;;;;;13.98;9.57;;;;;;;23.87;57.20;99591.69;7641548;32;37630;-82
2023/07/16 02:03:01;;;;;;;14.93;11.27;;;;;;;23.71;59.62;99589.75;7643259;32;37108;-82
2023/07/16 02:07:18;;;;;;;11.63;10.25;;;;;;;23.79;60.81;99594.31;7643103;32;39431;-82
2023/07/16 02:11:34;;;;;;;13.62;10.55;;;;;;;23.57;61.57;99593.03;7642381;32;40848;-83
2023/07/16 02:15:51;;;;;;;14.30;8.32;;;;;;;23.62;61.30;99598.31;7642909;32;38783;-82
2023/07/16 02:20:08;;;;;;;13.00;8.18;;;;;;;23.61;60.74;99593.94;7641982;32;37203;-82
2023/07/16 02:24:24;;;;;;;15.15;9.40;;;;;;;23.75;59.34;99598.19;7641795;32;39421;-83
2023/07/16 02:28:40;;;;;;;11.95;8.65;;;;;;;23.53;59.65;99589.41;7643016;32;40792;-82
2023/07/16 02:32:57;;;;;;;12.80;9.57;;;;;;;23.53;59.54;99589.41;7640825;32;37840;-82
2023/07/16 02:37:13;;;;;;;13.05;8.80;;;;;;;23.51;59.52;99588.97;7642076;32;38026;-82
2023/07/16 02:41:29;;;;;;;11.23;8.43;;;;;;;23.45;59.62;99587.63;7642083;32;40554;-82
2023/07/16 02:45:45;;;;;;;14.52;9.93;;;;;;;23.45;59.69;99598.75;7641930;32;39729;-83
2023/07/16 02:50:02;;;;;;;13.40;8.18;;;;;;;23.44;60.32;99595.16;7642917;32;38631;-82
2023/07/16 02:54:18;;;;;;;10.32;7.47;;;;;;;23.32;60.65;99597.25;7640794;32;37431;-83
2023/07/16 02:58:34;;;;;;;11.35;5.28;;;;;;;23.43;59.79;99581.63;7641886;32;39423;-82
2023/07/16 03:02:50;;;;;;;7.30;3.97;;;;;;;23.47;56.72;99590.03;7642342;32;39900;-82
2023/07/16 03:07:07;;;;;;;11.35;7.65;;;;;;;23.47;55.48;99595.59;7638225;32;38707;-83
2023/07/16 03:11:23;;;;;;;11.20;7.25;;;;;;;23.11;60.66;99603.94;7641031;32;38151;-83
2023/07/16 03:15:39;;;;;;;12.57;7.80;;;;;;;23.01;61.33;99602.47;7644537;32;39907;-84
2023/07/16 03:19:56;;;;;;;11.35;7.20;;;;;;;23.17;60.66;99602.50;7653231;32;40527;-83
2023/07/16 03:24:12;;;;;;;10.77;7.57;;;;;;;23.01;61.32;99596.94;7647007;32;38615;-83
2023/07/16 03:28:28;;;;;;;10.38;8.05;;;;;;;23.17;61.08;99610.81;7643098;32;35847;-84
2023/07/16 03:32:45;;;;;;;13.45;8.50;;;;;;;22.68;63.33;99611.19;7640633;32;40213;-83
2023/07/16 03:37:08;;;;;;;11.00;7.82;;;;;;;22.91;62.93;99611.38;7640878;32;39674;-83
2023/07/16 03:41:24;;;;;;;9.88;7.62;;;;;;;22.83;63.38;99624.25;7640904;32;37996;-81
2023/07/16 03:45:40;;;;;;;11.40;7.80;;;;;;;22.92;62.76;99626.06;7639223;32;37044;-82
2023/07/16 03:49:57;;;;;;;10.30;7.75;;;;;;;23.01;62.07;99635.03;7640906;32;40216;-82
2023/07/16 03:54:13;;;;;;;9.88;7.05;;;;;;;23.07;61.93;99639.19;7640323;32;39289;-82
2023/07/16 03:58:29;;;;;;;12.00;7.22;;;;;;;23.15;61.42;99637.41;7641151;32;37932;-82
2023/07/16 04:02:46;;;;;;;10.25;7.18;;;;;;;23.15;61.26;99629.84;7639846;32;37387;-80
2023/07/16 04:07:02;;;;;;;11.55;7.45;;;;;;;23.33;60.50;99635.03;7639783;32;39361;-82
2023/07/16 04:11:19;;;;;;;7.53;4.90;;;;;;;22.75;62.22;99641.94;7644686;32;40046;-82
2023/07/16 04:15:35;;;;;;;6.07;3.92;;;;;;;23.14;60.28;99636.56;7644025;32;38076;-82
2023/07/16 04:19:51;;;;;;;11.80;5.40;;;;;;;23.43;57.24;99637.25;7644755;32;38406;-82
2023/07/16 04:24:07;;;;;;;11.30;5.65;;;;;;;23.60;56.26;99639.62;7643458;32;38742;-83
2023/07/16 04:28:24;;;;;;;7.50;4.20;;;;;;;23.52;58.38;99646.19;7643745;32;39930;-83
2023/07/16 04:32:40;;;;;;;5.68;3.67;;;;;;;23.56;57.63;99638.75;7643411;32;38029;-82
2023/07/16 04:36:56;;;;;;;5.90;3.53;;;;;;;23.78;54.57;99633.63;7643741;32;37427;-83
2023/07/16 04:41:13;;;;;;;7.95;4.10;;;;;;;23.77;54.46;99638.41;7644546;32;39328;-83
2023/07/16 04:45:29;;;;;;;9.23;4.12;;;;;;;23.99;53.57;99634.13;7643174;32;40861;-82
2023/07/16 04:49:45;;;;;;;10.05;4.05;;;;;;;24.21;52.83;99651.25;7643530;32;37970;-82
2023/07/16 04:54:02;;;;;;;8.38;4.15;;;;;;;24.33;52.62;99642.75;7644024;32;36815;-81
2023/07/16 04:58:18;;;;;;;8.07;3.55;;;;;;;24.40;52.20;99642.06;7642566;32;39293;-77
2023/07/16 05:02:34;;;;;;;7.85;3.75;;;;;;;24.45;52.31;99660.47;7643988;32;40009;-76
2023/07/16 05:06:51;;;;;;;7.12;3.95;;;;;;;24.59;52.15;99655.19;7642498;32;38761;-74
2023/07/16 05:11:08;;;;;;;9.45;4.25;;;;;;;24.71;51.60;99657.81;7643816;32;37567;-75
2023/07/16 05:15:24;;;;;;;6.37;3.65;;;;;;;24.70;51.41;99656.22;7643879;32;39328;-75
2023/07/16 05:19:40;;;;;;;10.65;4.30;;;;;;;24.83;51.13;99653.25;7641828;32;39955;-74
2023/07/16 05:23:58;;;;;;;7.78;4.25;;;;;;;25.04;50.94;99661.16;7652626;32;37865;-76
2023/07/16 05:28:15;;;;;;;7.15;3.92;;;;;;;25.10;50.32;99652.09;7641977;32;37955;-70
2023/07/16 05:32:31;;;;;;;5.93;3.62;;;;;;;25.18;50.52;99669.78;7644010;32;40196;-69
2023/07/16 05:36:47;;;;;;;11.18;3.78;;;;;;;25.42;50.00;99664.97;7648033;32;40055;-68
2023/07/16 05:41:04;;;;;;;8.90;3.80;;;;;;;25.56;49.52;99672.75;7645143;32;37631;-69
2023/07/16 05:45:21;;;;;;;6.62;3.72;;;;;;;25.58;48.91;99662.03;7636089;32;37756;-67
2023/07/16 05:49:37;;;;;;;5.90;3.60;;;;;;;25.84;48.60;99664.00;7649337;32;39991;-68
2023/07/16 05:53:53;;;;;;;4.32;3.37;;;;;;;25.95;48.30;99670.53;7653456;32;40797;-67
2023/07/16 05:58:09;;;;;;;6.90;3.55;;;;;;;26.19;48.25;99671.25;7650939;32;38825;-68
2023/07/16 06:02:25;;;;;;;8.10;3.53;;;;;;;26.18;47.99;99681.63;7644946;32;37871;-69
2023/07/16 06:06:42;;;;;;;6.10;3.58;;;;;;;26.17;48.11;99668.84;7648711;32;39079;-71
2023/07/16 06:10:58;;;;;;;7.85;3.78;;;;;;;26.42;47.37;99674.72;7645631;32;39853;-69
2023/07/16 06:15:14;;;;;;;6.57;3.22;;;;;;;26.73;46.70;99678.28;7642448;32;38089;-70
2023/07/16 06:19:30;;;;;;;5.97;3.28;;;;;;;26.85;45.99;99674.38;7638137;32;37228;-71
2023/07/16 06:23:46;;;;;;;5.47;3.30;;;;;;;26.90;45.47;99682.41;7645201;32;39356;-72
2023/07/16 06:28:04;;;;;;;9.07;3.92;;;;;;;27.12;44.89;99672.22;7640404;32;40723;-72
2023/07/16 06:32:20;;;;;;;4.57;3.05;;;;;;;27.19;45.23;99681.87;7642329;32;38818;-69
2023/07/16 06:36:38;;;;;;;5.43;3.37;;;;;;;27.12;45.63;99677.00;7642775;32;37380;-68
2023/07/16 06:40:54;;;;;;;6.75;3.55;;;;;;;27.50;45.51;99675.72;7644405;32;39555;-68
2023/07/16 06:45:11;;;;;;;6.82;3.90;;;;;;;27.41;46.14;99675.28;7645695;32;40048;-72
2023/07/16 06:49:27;;;;;;;6.35;3.30;;;;;;;27.76;45.48;99679.50;7647559;32;38669;-68
2023/07/16 06:53:43;;;;;;;8.38;3.40;;;;;;;27.95;45.31;99678.41;7641356;32;37097;-69
2023/07/16 06:58:00;;;;;;;6.18;3.62;;;;;;;28.24;45.05;99668.13;7650610;32;40136;-84
2023/07/16 07:02:17;;;;;;;5.07;3.55;;;;;;;28.27;44.53;99672.16;7648389;32;39428;-83
2023/07/16 07:06:33;;;;;;;6.35;4.00;;;;;;;28.47;43.90;99673.41;7644306;32;38893;-84
2023/07/16 07:10:50;;;;;;;5.45;3.35;;;;;;;28.50;44.41;99671.03;7643153;32;36836;-85
2023/07/16 07:15:08;;;;;;;7.37;3.90;;;;;;;28.77;43.85;99671.47;7641257;32;39876;-85
2023/07/16 07:19:24;;;;;;;6.20;3.70;;;;;;;28.78;44.17;99659.88;7640141;32;40119;-87
2023/07/16 07:23:40;;;;;;;7.85;3.60;;;;;;;29.21;43.59;99647.88;7649442;32;37941;-85
2023/07/16 07:27:56;;;;;;;7.25;3.58;;;;;;;29.35;44.14;99649.87;7645372;32;37397;-83
2023/07/16 07:32:12;;;;;;;7.78;3.40;;;;;;;29.39;42.62;99645.88;7633854;32;39315;-83
2023/07/16 07:36:29;;;;;;;6.53;3.22;;;;;;;29.78;42.92;99658.25;7655975;32;40800;-82
2023/07/16 07:40:45;;;;;;;5.15;3.58;;;;;;;30.10;42.60;99657.34;7656680;32;39304;-82
2023/07/16 07:45:02;;;;;;;5.97;3.20;;;;;;;30.13;42.77;99659.31;7658061;32;36770;-84
2023/07/16 07:49:18;;;;;;;5.72;3.87;;;;;;;29.95;42.36;99643.31;7659623;32;39332;-82
2023/07/16 07:53:34;;;;;;;6.25;3.72;;;;;;;30.11;42.33;99628.81;7684586;32;39972;-82
2023/07/16 07:57:51;;;;;;;7.82;3.80;;;;;;;30.44;42.02;99631.47;7663981;32;38628;-82
2023/07/16 08:02:07;;;;;;;7.05;3.37;;;;;;;30.56;41.58;99630.97;7659743;32;37670;-83
2023/07/16 08:06:24;;;;;;;5.78;3.53;;;;;;;30.60;40.77;99637.41;7659652;32;39198;-82
2023/07/16 08:10:40;;;;;;;7.30;3.55;;;;;;;30.87;39.87;99640.44;7659661;32;39834;-83
2023/07/16 08:14:58;;;;;;;4.90;3.45;;;;;;;30.68;40.69;99635.31;7659397;32;38744;-83
2023/07/16 08:19:14;;;;;;;4.97;3.17;;;;;;;31.00;40.21;99634.31;7659500;32;37606;-83
2023/07/16 08:23:30;;;;;;;7.75;3.62;;;;;;;31.25;41.04;99636.91;7658605;32;40128;-82
2023/07/16 08:27:46;;;;;;;9.05;3.72;;;;;;;31.66;40.21;99638.13;7656523;32;40818;-80
2023/07/16 08:32:03;;;;;;;5.78;3.42;;;;;;;31.87;39.61;99628.63;7654784;32;38303;-85
2023/07/16 08:36:19;;;;;;;4.47;2.75;;;;;;;31.80;38.59;99635.13;7637480;32;37431;-85
2023/07/16 08:40:39;;;;;;;5.90;3.05;;;;;;;32.15;38.14;99631.12;7651948;32;39187;-84
2023/07/16 08:44:55;;;;;;;9.43;3.60;;;;;;;32.41;37.79;99630.75;7643865;32;39809;-85
2023/07/16 08:49:12;;;;;;;22.85;12.18;;;;;;;32.26;38.58;99639.41;7655102;32;37613;-82
2023/07/16 08:53:29;;;;;;;6.22;3.97;;;;;;;32.21;38.27;99639.09;7649125;32;37388;-80
2023/07/16 08:57:45;;;;;;;7.28;3.50;;;;;;;32.74;37.59;99637.56;7647207;32;40159;-85
2023/07/16 09:02:02;;;;;;;7.28;3.65;;;;;;;32.78;37.21;99649.56;7643038;32;39856;-85
2023/07/16 09:06:19;;;;;;;7.03;3.37;;;;;;;33.06;36.91;99650.31;7653257;32;37959;-84
2023/07/16 09:10:36;;;;;;;7.57;3.40;;;;;;;33.17;35.13;99645.34;7643257;32;37044;-86
2023/07/16 09:14:53;;;;;;;6.78;3.03;;;;;;;32.79;34.99;99642.72;7643866;32;39373;-86
2023/07/16 09:19:13;;;;;;;8.43;3.92;;;;;;;33.33;34.69;99649.50;7650747;32;39787;-84
2023/07/16 09:23:31;;;;;;;6.07;3.25;;;;;;;33.55;36.04;99641.41;7650067;32;37552;-85
2023/07/16 09:27:49;;;;;;;5.03;3.20;;;;;;;33.61;34.39;99632.00;7643251;32;37132;-86
2023/07/16 09:32:06;;;;;;;11.45;4.05;;;;;;;33.31;34.69;99638.62;7642579;32;39478;-86
2023/07/16 09:36:26;;;;;;;5.15;3.50;;;;;;;33.75;33.24;99638.62;7649453;32;40864;-85
2023/07/16 09:40:42;;;;;;;5.87;3.50;;;;;;;33.51;33.39;99649.94;7632697;32;38224;-86
2023/07/16 09:45:00;;;;;;;9.45;3.70;;;;;;;33.65;34.01;99632.75;7655644;32;37009;-85
2023/07/16 09:49:16;;;;;;;10.18;4.10;;;;;;;33.30;31.71;99640.63;7659839;32;40223;-87
2023/07/16 09:53:32;;;;;;;7.95;3.90;;;;;;;33.16;33.29;99638.09;7658560;32;39899;-83
2023/07/16 09:57:50;;;;;;;6.72;3.62;;;;;;;33.29;32.89;99641.88;7635383;32;38658;-81
2023/07/16 10:02:10;;;;;;;10.30;4.62;;;;;;;33.66;32.94;99633.53;7630957;32;37305;-85
2023/07/16 10:06:26;;;;;;;7.10;3.60;;;;;;;32.92;33.48;99643.69;7650463;32;40182;-79
2023/07/16 10:10:43;;;;;;;13.50;4.40;;;;;;;33.28;32.37;99634.63;7657747;32;40138;-80
2023/07/16 10:15:02;;;;;;;10.63;4.60;;;;;;;33.82;33.46;99630.81;7657805;32;38494;-80
2023/07/16 10:19:24;;;;;;;8.05;3.95;;;;;;;33.85;33.33;99621.44;7648559;32;37443;-78
2023/07/16 10:23:43;;;;;;;13.33;4.43;;;;;;;33.76;34.31;99612.75;7641591;32;39999;-79
2023/07/16 10:28:01;;;;;;;6.10;4.37;;;;;;;34.12;33.16;99617.66;7641880;32;40381;-79
2023/07/16 10:32:18;;;;;;;6.68;4.72;;;;;;;34.45;31.06;99614.94;7641949;32;38443;-78
2023/07/16 10:36:38;;;;;;;7.28;4.05;;;;;;;34.70;30.31;99605.81;7640801;32;37802;-78
2023/07/16 10:40:55;;;;;;;6.72;4.37;;;;;;;34.46;31.31;99593.09;7642009;32;40072;-79
2023/07/16 10:45:12;;;;;;;9.77;4.50;;;;;;;34.59;29.87;99597.59;7641124;32;39610;-77
2023/07/16 10:49:29;;;;;;;11.75;5.15;;;;;;;34.73;31.55;99598.53;7641043;32;38789;-78
2023/07/16 10:53:45;;;;;;;8.65;4.57;;;;;;;35.24;30.20;99595.22;7641804;32;36812;-79
2023/07/16 10:58:08;;;;;;;8.20;4.80;;;;;;;35.33;29.92;99592.56;7642099;32;39507;-78
2023/07/16 11:02:25;;;;;;;12.00;4.70;;;;;;;35.79;28.89;99593.31;7641600;32;40065;-79
2023/07/16 11:06:42;;;;;;;11.05;5.15;;;;;;;35.35;30.21;99590.06;7641719;32;38597;-80
2023/07/16 11:10:58;;;;;;;7.20;4.87;;;;;;;35.63;29.24;99593.34;7642202;32;37187;-79
2023/07/16 11:15:14;;;;;;;8.52;4.80;;;;;;;35.65;29.29;99588.00;7650253;32;39554;-81
2023/07/16 11:19:31;;;;;;;10.80;5.07;;;;;;;35.76;29.66;99591.38;7649405;32;39828;-79
2023/07/16 11:23:48;;;;;;;7.78;5.12;;;;;;;35.30;29.53;99576.44;7649093;32;37815;-78
2023/07/16 11:28:04;;;;;;;10.65;5.07;;;;;;;35.59;30.34;99587.00;7640725;32;37848;-77
2023/07/16 11:32:58;;;;;;;8.75;5.50;;;;;;;36.01;29.60;99584.16;7650176;32;39594;-78
2023/07/16 11:37:15;;;;;;;9.35;5.22;;;;;;;36.05;30.37;99585.62;7606220;32;39026;-77
2023/07/16 11:41:31;;;;;;;7.85;5.25;;;;;;;36.15;28.64;99580.88;7641775;32;37783;-78
2023/07/16 11:45:50;;;;;;;8.23;5.22;;;;;;;35.40;29.89;99592.34;7642159;32;37366;-78
2023/07/16 11:50:07;;;;;;;10.52;5.93;;;;;;;35.27;29.72;99583.00;7644086;32;40031;-78
2023/07/16 11:54:23;;;;;;;9.25;5.72;;;;;;;35.63;29.14;99579.16;7643587;32;40726;-77
2023/07/16 11:58:40;;;;;;;12.50;5.60;;;;;;;36.14;29.21;99576.47;7643707;32;37679;-79
2023/07/16 12:02:57;;;;;;;10.13;5.90;;;;;;;36.45;28.35;99573.87;7645256;32;37096;-79
2023/07/16 12:07:14;;;;;;;12.02;5.90;;;;;;;36.43;28.00;99567.84;7642410;32;39803;-78
2023/07/16 12:11:31;;;;;;;11.73;5.90;;;;;;;36.38;27.40;99576.16;7643419;32;38531;-78
2023/07/16 12:15:48;;;;;;;8.02;5.62;;;;;;;36.12;28.59;99578.12;7644195;32;37385;-77
2023/07/16 12:20:04;;;;;;;9.35;5.43;;;;;;;36.28;28.99;99567.50;7644246;32;36801;-76
2023/07/16 12:24:21;;;;;;;12.77;5.65;;;;;;;36.24;28.07;99575.34;7645763;32;39164;-76
2023/07/16 12:28:38;;;;;;;8.10;5.12;;;;;;;36.55;27.98;99571.12;7647914;32;38291;-76
2023/07/16 12:32:54;;;;;;;10.90;5.30;;;;;;;36.57;27.63;99569.44;7644331;32;38363;-76
2023/07/16 12:37:10;;;;;;;9.35;5.62;;;;;;;36.39;27.81;99574.87;7647335;32;36937;-76
2023/07/16 12:41:27;;;;;;;7.93;5.50;;;;;;;36.89;28.72;99566.78;7641963;32;40171;-77
2023/07/16 12:45:43;;;;;;;8.38;5.57;;;;;;;36.96;27.70;99561.66;7651975;32;39869;-77
2023/07/16 12:49:59;;;;;;;10.82;5.82;;;;;;;36.93;29.20;99573.13;7646930;32;38680;-77
2023/07/16 12:54:15;;;;;;;14.52;5.47;;;;;;;37.11;31.67;99578.19;7648655;32;38521;-77
2023/07/16 12:58:32;;;;;;;10.88;5.68;;;;;;;37.17;29.38;99571.50;7647060;32;39033;-83
2023/07/16 13:02:48;;;;;;;11.02;5.12;;;;;;;37.10;28.02;99565.25;7648984;32;40592;-77
2023/07/16 13:07:04;;;;;;;9.43;4.87;;;;;;;37.94;27.01;99564.63;7647255;32;38779;-79
2023/07/16 13:11:21;;;;;;;9.85;4.90;;;;;;;37.87;25.74;99560.00;7652209;32;37266;-78
2023/07/16 13:15:37;;;;;;;11.07;5.05;;;;;;;37.94;26.29;99567.47;7655425;32;39388;-77
2023/07/16 13:19:53;;;;;;;12.15;4.80;;;;;;;38.07;27.12;99568.19;7650207;32;39785;-79
2023/07/16 13:24:10;;;;;;;16.80;5.90;;;;;;;38.36;25.00;99578.47;7651459;32;37670;-79
2023/07/16 13:28:26;;;;;;;8.02;4.90;;;;;;;37.83;27.63;99569.97;7644559;32;37253;-79
2023/07/16 13:32:42;;;;;;;8.68;5.75;;;;;;;38.29;28.30;99575.88;7646134;32;39425;-79
2023/07/16 13:36:59;;;;;;;7.93;5.80;;;;;;;38.25;28.09;99572.41;7656610;32;39977;-79
2023/07/16 13:41:15;;;;;;;11.18;6.03;;;;;;;38.84;27.68;99567.53;7639950;32;37923;-80
2023/07/16 13:45:33;;;;;;;11.30;6.12;;;;;;;38.95;27.13;99563.44;7632194;32;37165;-79
2023/07/16 13:49:49;;;;;;;9.95;6.03;;;;;;;38.81;28.24;99570.50;7643585;32;39359;-82
2023/07/16 13:54:05;;;;;;;9.82;6.30;;;;;;;38.81;27.27;99562.78;7658165;32;40761;-82
2023/07/16 13:58:22;;;;;;;9.43;5.45;;;;;;;39.10;27.00;99561.56;7637577;32;37761;-85
2023/07/16 14:02:38;;;;;;;12.73;4.00;;;;;;;39.15;24.66;99557.28;7631818;32;37798;-82
2023/07/16 14:06:56;;;;;;;8.00;4.60;;;;;;;39.31;22.23;99559.03;7636802;32;39548;-79
2023/07/16 14:11:12;;;;;;;14.50;4.35;;;;;;;39.32;23.40;99554.91;7651050;32;41472;-80
2023/07/16 14:15:28;;;;;;;8.35;4.87;;;;;;;39.55;22.75;99556.31;7648079;32;38020;-82
2023/07/16 14:19:44;;;;;;;8.02;3.92;;;;;;;39.57;22.46;99554.59;7644421;32;36058;-80
2023/07/16 14:24:01;;;;;;;9.70;4.30;;;;;;;39.90;22.17;99542.47;7648356;32;39309;-80
2023/07/16 14:28:17;;;;;;;5.97;3.67;;;;;;;39.63;21.95;99540.47;7642035;32;39906;-80
2023/07/16 14:32:34;;;;;;;10.18;3.83;;;;;;;40.07;22.43;99536.41;7650349;32;39302;-84
2023/07/16 14:36:51;;;;;;;6.55;3.97;;;;;;;40.47;23.34;99532.44;7642496;32;38054;-85
2023/07/16 14:41:08;;;;;;;7.53;3.62;;;;;;;39.78;20.93;99543.47;7643293;32;39400;-84
2023/07/16 14:45:24;;;;;;;11.48;3.83;;;;;;;40.26;22.92;99535.06;7642378;32;39713;-84
2023/07/16 14:49:43;;;;;;;8.18;4.30;;;;;;;40.52;20.91;99531.78;7640409;32;38198;-84
2023/07/16 14:54:02;;;;;;;11.70;5.32;;;;;;;40.48;22.81;99525.44;7642593;32;37589;-86
2023/07/16 14:58:21;;;;;;;11.70;5.85;;;;;;;40.77;22.37;99521.91;7639763;32;40977;-81
2023/07/16 15:02:37;;;;;;;8.98;5.57;;;;;;;40.73;22.82;99522.09;7640712;32;40836;-82
2023/07/16 15:06:54;;;;;;;7.40;5.50;;;;;;;40.92;23.34;99527.72;7640359;32;37676;-81
2023/07/16 15:11:10;;;;;;;13.00;6.45;;;;;;;41.02;25.08;99520.63;7637423;32;37679;-83
2023/07/16 15:15:27;;;;;;;11.15;6.50;;;;;;;41.17;24.48;99519.88;7642961;32;39577;-84
2023/07/16 15:19:43;;;;;;;10.50;5.80;;;;;;;40.68;24.73;99519.91;7644155;32;40471;-84
2023/07/16 15:23:59;;;;;;;13.93;6.62;;;;;;;40.39;25.17;99523.44;7640248;32;38065;-84
2023/07/16 15:28:15;;;;;;;10.75;6.30;;;;;;;39.74;26.91;99522.84;7640510;32;36751;-84
2023/07/16 15:32:32;;;;;;;12.95;5.97;;;;;;;39.59;26.82;99517.03;7642546;32;38728;-85
2023/07/16 15:36:48;;;;;;;8.02;6.03;;;;;;;39.52;27.24;99518.16;7646317;32;40811;-83
2023/07/16 15:41:05;;;;;;;10.80;6.30;;;;;;;39.77;26.60;99516.97;7650510;32;38001;-84
2023/07/16 15:45:21;;;;;;;9.95;5.78;;;;;;;39.76;26.65;99511.78;7643703;32;37075;-84
2023/07/16 15:49:38;;;;;;;11.27;5.87;;;;;;;39.86;26.44;99518.22;7642761;32;39206;-83
2023/07/16 15:53:54;;;;;;;9.50;5.90;;;;;;;39.88;25.83;99516.47;7647227;32;40508;-83
2023/07/16 15:58:12;;;;;;;10.88;5.60;;;;;;;39.80;23.98;99509.53;7646472;32;38105;-83
2023/07/16 16:02:28;;;;;;;8.93;5.97;;;;;;;40.08;25.01;99512.31;7648636;32;37380;-83
2023/07/16 16:06:45;;;;;;;7.82;5.60;;;;;;;39.91;26.12;99514.72;7652176;32;40142;-85
2023/07/16 16:11:02;;;;;;;11.20;5.97;;;;;;;40.01;25.94;99521.22;7651084;32;39571;-84
2023/07/16 16:15:18;;;;;;;8.63;6.03;;;;;;;39.90;26.13;99511.06;7651459;32;38054;-83
2023/07/16 16:19:35;;;;;;;9.30;5.95;;;;;;;39.82;26.09;99529.81;7646088;32;37882;-84
2023/07/16 16:23:51;;;;;;;9.35;5.97;;;;;;;39.79;26.01;99527.91;7655959;32;40184;-84
2023/07/16 16:28:09;;;;;;;8.98;5.50;;;;;;;39.82;26.06;99521.25;7643938;32;41295;-85
2023/07/16 16:32:26;;;;;;;9.60;5.55;;;;;;;39.47;26.68;99520.84;7646803;32;36863;-82
2023/07/16 16:36:42;;;;;;;11.95;6.22;;;;;;;39.45;25.74;99524.19;7644210;32;37807;-81
2023/07/16 16:41:07;;;;;;;16.85;5.35;;;;;;;39.27;26.13;99507.09;7659278;32;40167;-81
2023/07/16 16:45:24;;;;;;;8.45;5.87;;;;;;;39.15;26.82;99518.16;7659391;32;39617;-81
2023/07/16 16:49:42;;;;;;;8.43;6.05;;;;;;;39.15;26.12;99525.94;7659120;32;37863;-80
2023/07/16 16:53:58;;;;;;;10.77;5.93;;;;;;;38.93;27.18;99523.22;7659284;32;37095;-81
2023/07/16 16:58:14;;;;;;;13.30;5.85;;;;;;;38.75;27.87;99539.03;7633280;32;39441;-82
2023/07/16 17:02:30;;;;;;;11.00;6.70;;;;;;;38.49;28.97;99547.00;7658288;32;40816;-84
2023/07/16 17:06:47;;;;;;;12.60;7.12;;;;;;;38.40;30.08;99542.09;7659034;32;38698;-84
2023/07/16 17:11:03;;;;;;;10.88;6.72;;;;;;;38.00;31.08;99550.59;7658961;32;37177;-84
2023/07/16 17:15:20;;;;;;;10.73;7.43;;;;;;;37.73;31.64;99538.59;7658507;32;39436;-82
2023/07/16 17:19:36;;;;;;;14.87;7.00;;;;;;;37.46;31.79;99552.59;7658833;32;40551;-86
2023/07/16 17:23:52;;;;;;;10.30;7.10;;;;;;;37.19;32.12;99556.84;7653564;32;37974;-85
2023/07/16 17:28:09;;;;;;;10.07;6.87;;;;;;;36.80;33.09;99556.12;7684607;32;37331;-85
2023/07/16 17:32:25;;;;;;;12.52;7.50;;;;;;;36.60;33.27;99554.34;7642359;32;39354;-83
2023/07/16 17:36:41;;;;;;;10.45;7.40;;;;;;;36.45;33.12;99564.56;7643176;32;40015;-84
2023/07/16 17:40:58;;;;;;;11.80;6.90;;;;;;;36.18;33.60;99562.94;7642466;32;38457;-83
2023/07/16 17:45:14;;;;;;;12.37;7.53;;;;;;;35.79;34.61;99572.66;7642587;32;37490;-83
2023/07/16 17:49:30;;;;;;;16.73;8.15;;;;;;;35.59;34.71;99572.81;7643381;32;39372;-85
2023/07/16 17:53:50;;;;;;;12.48;7.47;;;;;;;35.33;35.46;99575.56;7641829;32;40059;-85
2023/07/16 17:58:08;;;;;;;11.23;8.20;;;;;;;34.95;36.10;99574.09;7643123;32;37628;-86
2023/07/16 18:02:26;;;;;;;12.63;7.18;;;;;;;34.68;36.64;99582.84;7643202;32;36895;-84
2023/07/16 18:06:43;;;;;;;15.60;9.60;;;;;;;34.60;36.88;99576.56;7642698;32;39164;-85
2023/07/16 18:11:00;;;;;;;15.90;9.65;;;;;;;34.11;38.17;99584.94;7643087;32;40880;-83
2023/07/16 18:15:17;;;;;;;13.15;7.95;;;;;;;33.92;38.99;99589.41;7642704;32;37947;-84
2023/07/16 18:19:33;;;;;;;15.73;8.52;;;;;;;33.77;39.12;99585.28;7642083;32;36434;-86
2023/07/16 18:23:50;;;;;;;17.42;9.13;;;;;;;33.52;39.66;99589.41;7641286;32;38940;-87
2023/07/16 18:28:06;;;;;;;14.75;8.65;;;;;;;33.42;39.49;99598.88;7642218;32;39855;-79
2023/07/16 18:32:22;;;;;;;12.93;8.30;;;;;;;33.24;40.04;99599.22;7641860;32;38669;-84
2023/07/16 18:36:38;;;;;;;13.85;8.20;;;;;;;33.03;40.77;99597.53;7643188;32;37226;-85
2023/07/16 18:40:55;;;;;;;15.77;9.15;;;;;;;32.92;40.74;99598.50;7653228;32;39517;-81
2023/07/16 18:45:11;;;;;;;13.60;8.40;;;;;;;32.67;41.53;99598.16;7641151;32;39463;-83
2023/07/16 18:49:27;;;;;;;12.63;8.82;;;;;;;32.42;41.93;99609.78;7639600;32;38056;-86
2023/07/16 18:53:44;;;;;;;14.93;9.63;;;;;;;32.15;42.98;99619.84;7645576;32;36166;-85
2023/07/16 18:58:00;;;;;;;17.23;10.95;;;;;;;31.96;43.59;99623.25;7646333;32;39911;-82
2023/07/16 19:02:16;;;;;;;14.55;9.77;;;;;;;31.82;43.77;99619.41;7642857;32;39334;-82
2023/07/16 19:06:35;;;;;;;12.68;9.02;;;;;;;31.75;43.58;99630.78;7642080;32;38072;-82
2023/07/16 19:10:52;;;;;;;12.63;9.35;;;;;;;31.69;43.58;99634.47;7641236;32;37743;-83
2023/07/16 19:15:09;;;;;;;14.23;8.50;;;;;;;31.55;44.00;99644.69;7641737;32;38926;-83
2023/07/16 19:19:25;;;;;;;24.33;9.43;;;;;;;31.36;44.50;99646.06;7644331;32;40706;-79
2023/07/16 19:23:41;;;;;;;13.70;8.07;;;;;;;31.18;44.98;99649.00;7643975;32;37400;-79
2023/07/16 19:27:57;;;;;;;18.65;8.38;;;;;;;31.00;45.57;99657.63;7642856;32;37857;-78
2023/07/16 19:32:14;;;;;;;20.90;9.07;;;;;;;30.89;45.83;99662.50;7641847;32;39806;-79
2023/07/16 19:36:31;;;;;;;14.87;7.93;;;;;;;30.87;45.98;99670.56;7645238;32;40050;-78
2023/07/16 19:40:48;;;;;;;11.85;8.13;;;;;;;30.75;46.33;99674.66;7648155;32;37572;-78
2023/07/16 19:45:06;;;;;;;14.07;8.20;;;;;;;30.75;46.38;99679.50;7648531;32;36858;-79
2023/07/16 19:49:22;;;;;;;13.93;7.82;;;;;;;30.68;46.18;99677.53;7647765;32;39680;-78
2023/07/16 19:53:38;;;;;;;14.02;7.82;;;;;;;30.55;46.89;99680.03;7649181;32;40910;-78
2023/07/16 19:57:54;;;;;;;12.85;9.00;;;;;;;30.48;47.30;99680.06;7648007;32;38024;-78
2023/07/16 20:02:11;;;;;;;12.05;8.38;;;;;;;30.51;46.73;99684.84;7645023;32;37910;-78